Terminal Aerodrome Forecast
Issued by NWS

Home | Current Version | Previous Version | Text Only | Print | Product List | Glossary Off
Versions: 1 2 3 4 5 6 7 8 9 10 11 12 13 14 15 16 17 18 19 20

549
FTUS43 KGRB 271120
TAFATW
TAF
KATW 271120Z 2712/2812 25003KT P6SM SCT050 BKN100
     FM271600 VRB03KT P6SM VCSH SCT060 BKN100
     FM272100 02009KT 6SM SHRA VCTS BKN060CB
     FM280300 04004KT 4SM -SHRA BKN025 OVC040
     FM280600 02006KT 5SM BR VCSH BKN020=

USA.gov is the U.S. government's official web portal to all federal, state and local government web resources and services.